sensor_id;sensor_type;location;lat;lon;timestamp;pressure;altitude;pressure_sealevel;temperature;humidity
51452;BME280;37521;52.020;-1.740;2023-06-22T00:01:38;100141.69;;;11.85;100.00
51452;BME280;37521;52.020;-1.740;2023-06-22T00:04:06;100141.75;;;11.83;100.00
51452;BME280;37521;52.020;-1.740;2023-06-22T00:06:35;100147.97;;;11.82;100.00
51452;BME280;37521;52.020;-1.740;2023-06-22T00:09:05;100141.09;;;11.78;100.00
51452;BME280;37521;52.020;-1.740;2023-06-22T00:11:34;100134.41;;;11.71;100.00
51452;BME280;37521;52.020;-1.740;2023-06-22T00:14:02;100143.63;;;11.62;100.00
51452;BME280;37521;52.020;-1.740;2023-06-22T00:16:32;100142.00;;;11.60;100.00
51452;BME280;37521;52.020;-1.740;2023-06-22T00:19:01;100140.41;;;11.56;100.00
51452;BME280;37521;52.020;-1.740;2023-06-22T00:21:30;100143.34;;;11.50;100.00
51452;BME280;37521;52.020;-1.740;2023-06-22T00:23:59;100150.59;;;11.46;100.00
51452;BME280;37521;52.020;-1.740;2023-06-22T00:26:30;100144.28;;;11.49;100.00
51452;BME280;37521;52.020;-1.740;2023-06-22T00:28:59;100145.84;;;11.53;100.00
51452;BME280;37521;52.020;-1.740;2023-06-22T00:31:30;100143.06;;;11.56;100.00
51452;BME280;37521;52.020;-1.740;2023-06-22T00:33:58;100145.56;;;11.59;100.00
51452;BME280;37521;52.020;-1.740;2023-06-22T00:36:27;100137.63;;;11.59;100.00
51452;BME280;37521;52.020;-1.740;2023-06-22T00:38:56;100144.75;;;11.57;100.00
51452;BME280;37521;52.020;-1.740;2023-06-22T00:41:24;100143.84;;;11.58;100.00
51452;BME280;37521;52.020;-1.740;2023-06-22T00:43:57;100140.13;;;11.62;100.00
51452;BME280;37521;52.020;-1.740;2023-06-22T00:46:25;100144.34;;;11.66;100.00
51452;BME280;37521;52.020;-1.740;2023-06-22T00:48:53;100143.06;;;11.56;100.00
51452;BME280;37521;52.020;-1.740;2023-06-22T00:51:24;100149.56;;;11.49;100.00
51452;BME280;37521;52.020;-1.740;2023-06-22T00:53:53;100147.16;;;11.44;100.00
51452;BME280;37521;52.020;-1.740;2023-06-22T00:56:23;100145.41;;;11.43;100.00
51452;BME280;37521;52.020;-1.740;2023-06-22T00:58:53;100148.03;;;11.44;100.00
51452;BME280;37521;52.020;-1.740;2023-06-22T01:01:23;100150.66;;;11.44;100.00
51452;BME280;37521;52.020;-1.740;2023-06-22T01:03:51;100149.72;;;11.45;100.00
51452;BME280;37521;52.020;-1.740;2023-06-22T01:06:31;100159.44;;;11.45;100.00
51452;BME280;37521;52.020;-1.740;2023-06-22T01:09:11;100155.88;;;11.46;100.00
51452;BME280;37521;52.020;-1.740;2023-06-22T01:11:45;100155.72;;;11.49;100.00
51452;BME280;37521;52.020;-1.740;2023-06-22T01:14:22;100156.44;;;11.53;100.00
51452;BME280;37521;52.020;-1.740;2023-06-22T01:17:00;100151.78;;;11.58;100.00
51452;BME280;37521;52.020;-1.740;2023-06-22T01:19:38;100147.28;;;11.60;100.00
51452;BME280;37521;52.020;-1.740;2023-06-22T01:22:11;100152.41;;;11.63;100.00
51452;BME280;37521;52.020;-1.740;2023-06-22T01:24:51;100162.84;;;11.66;100.00
51452;BME280;37521;52.020;-1.740;2023-06-22T01:27:33;100162.69;;;11.69;100.00
51452;BME280;37521;52.020;-1.740;2023-06-22T01:30:06;100160.03;;;11.69;100.00
51452;BME280;37521;52.020;-1.740;2023-06-22T01:32:38;100159.28;;;11.67;100.00
51452;BME280;37521;52.020;-1.740;2023-06-22T01:35:09;100159.44;;;11.64;100.00
51452;BME280;37521;52.020;-1.740;2023-06-22T01:37:38;100171.84;;;11.62;100.00
51452;BME280;37521;52.020;-1.740;2023-06-22T01:40:08;100168.56;;;11.57;100.00
51452;BME280;37521;52.020;-1.740;2023-06-22T01:42:37;100164.84;;;11.61;100.00
51452;BME280;37521;52.020;-1.740;2023-06-22T01:45:10;100152.41;;;11.63;100.00
51452;BME280;37521;52.020;-1.740;2023-06-22T01:47:39;100159.44;;;11.64;100.00
51452;BME280;37521;52.020;-1.740;2023-06-22T01:50:09;100155.78;;;11.66;100.00
51452;BME280;37521;52.020;-1.740;2023-06-22T01:52:37;100169.69;;;11.70;100.00
51452;BME280;37521;52.020;-1.740;2023-06-22T01:55:07;100170.78;;;11.66;100.00
51452;BME280;37521;52.020;-1.740;2023-06-22T01:57:36;100166.47;;;11.63;100.00
51452;BME280;37521;52.020;-1.740;2023-06-22T02:00:09;100171.84;;;11.62;100.00
51452;BME280;37521;52.020;-1.740;2023-06-22T02:02:48;100170.13;;;11.61;100.00
51452;BME280;37521;52.020;-1.740;2023-06-22T02:05:19;100171.94;;;11.60;100.00
51452;BME280;37521;52.020;-1.740;2023-06-22T02:07:52;100171.28;;;11.55;100.00
51452;BME280;37521;52.020;-1.740;2023-06-22T02:10:25;100175.59;;;11.58;100.00
51452;BME280;37521;52.020;-1.740;2023-06-22T02:12:57;100183.72;;;11.53;100.00
51452;BME280;37521;52.020;-1.740;2023-06-22T02:15:28;100189.09;;;11.52;100.00
51452;BME280;37521;52.020;-1.740;2023-06-22T02:17:57;100182.09;;;11.51;100.00
51452;BME280;37521;52.020;-1.740;2023-06-22T02:20:26;100184.50;;;11.55;100.00
51452;BME280;37521;52.020;-1.740;2023-06-22T02:22:56;100174.16;;;11.51;100.00
51452;BME280;37521;52.020;-1.740;2023-06-22T02:25:24;100177.03;;;11.46;100.00
51452;BME280;37521;52.020;-1.740;2023-06-22T02:27:52;100183.94;;;11.49;100.00
51452;BME280;37521;52.020;-1.740;2023-06-22T02:30:21;100187.69;;;11.44;100.00
51452;BME280;37521;52.020;-1.740;2023-06-22T02:32:51;100180.03;;;11.38;100.00
51452;BME280;37521;52.020;-1.740;2023-06-22T02:35:26;100180.16;;;11.35;100.00
51452;BME280;37521;52.020;-1.740;2023-06-22T02:37:59;100185.59;;;11.32;100.00
51452;BME280;37521;52.020;-1.740;2023-06-22T02:40:28;100192.75;;;11.30;100.00
51452;BME280;37521;52.020;-1.740;2023-06-22T02:42:57;100194.47;;;11.31;100.00
51452;BME280;37521;52.020;-1.740;2023-06-22T02:45:29;100195.25;;;11.33;100.00
51452;BME280;37521;52.020;-1.740;2023-06-22T02:47:59;100185.59;;;11.32;100.00
51452;BME280;37521;52.020;-1.740;2023-06-22T02:50:28;100182.97;;;11.32;100.00
51452;BME280;37521;52.020;-1.740;2023-06-22T02:52:58;100195.31;;;11.32;100.00
51452;BME280;37521;52.020;-1.740;2023-06-22T02:55:28;100189.19;;;11.31;100.00
51452;BME280;37521;52.020;-1.740;2023-06-22T02:57:58;100182.03;;;11.33;100.00
51452;BME280;37521;52.020;-1.740;2023-06-22T03:00:34;100180.31;;;11.32;100.00
51452;BME280;37521;52.020;-1.740;2023-06-22T03:03:04;100187.47;;;11.30;100.00
51452;BME280;37521;52.020;-1.740;2023-06-22T03:05:32;100176.91;;;11.30;100.00
51452;BME280;37521;52.020;-1.740;2023-06-22T03:08:03;100190.22;;;11.27;100.00
51452;BME280;37521;52.020;-1.740;2023-06-22T03:10:33;100188.59;;;11.25;100.00
51452;BME280;37521;52.020;-1.740;2023-06-22T03:13:02;100191.16;;;11.26;100.00
51452;BME280;37521;52.020;-1.740;2023-06-22T03:15:30;100179.53;;;11.30;100.00
51452;BME280;37521;52.020;-1.740;2023-06-22T03:18:00;100183.03;;;11.31;100.00
51452;BME280;37521;52.020;-1.740;2023-06-22T03:20:31;100182.88;;;11.34;100.00
51452;BME280;37521;52.020;-1.740;2023-06-22T03:23:01;100200.31;;;11.38;100.00
51452;BME280;37521;52.020;-1.740;2023-06-22T03:25:29;100190.03;;;11.32;100.00
51452;BME280;37521;52.020;-1.740;2023-06-22T03:27:58;100180.44;;;11.29;100.00
51452;BME280;37521;52.020;-1.740;2023-06-22T03:30:27;100182.31;;;11.27;100.00
51452;BME280;37521;52.020;-1.740;2023-06-22T03:32:56;100179.81;;;11.24;100.00
51452;BME280;37521;52.020;-1.740;2023-06-22T03:35:26;100179.94;;;11.21;100.00
51452;BME280;37521;52.020;-1.740;2023-06-22T03:37:56;100180.09;;;11.18;100.00
51452;BME280;37521;52.020;-1.740;2023-06-22T03:40:25;100176.59;;;11.17;100.00
51452;BME280;37521;52.020;-1.740;2023-06-22T03:42:54;100177.59;;;11.15;100.00
51452;BME280;37521;52.020;-1.740;2023-06-22T03:45:22;100172.16;;;11.18;100.00
51452;BME280;37521;52.020;-1.740;2023-06-22T03:47:50;100174.16;;;11.13;100.00
51452;BME280;37521;52.020;-1.740;2023-06-22T03:50:19;100172.56;;;11.09;100.00
51452;BME280;37521;52.020;-1.740;2023-06-22T03:52:48;100183.16;;;11.09;100.00
51452;BME280;37521;52.020;-1.740;2023-06-22T03:55:20;100176.16;;;11.08;100.00
51452;BME280;37521;52.020;-1.740;2023-06-22T03:57:49;100181.31;;;11.11;100.00
51452;BME280;37521;52.020;-1.740;2023-06-22T04:00:18;100185.66;;;11.12;100.00
51452;BME280;37521;52.020;-1.740;2023-06-22T04:02:46;100181.31;;;11.11;100.00
51452;BME280;37521;52.020;-1.740;2023-06-22T04:05:15;100176.88;;;11.11;100.00
51452;BME280;37521;52.020;-1.740;2023-06-22T04:07:44;100173.59;;;11.06;100.00
51452;BME280;37521;52.020;-1.740;2023-06-22T04:10:12;100181.59;;;11.05;100.00
51452;BME280;37521;52.020;-1.740;2023-06-22T04:12:45;100178.13;;;11.03;100.00
51452;BME280;37521;52.020;-1.740;2023-06-22T04:15:14;100178.94;;;11.05;100.00
51452;BME280;37521;52.020;-1.740;2023-06-22T04:17:42;100178.88;;;11.06;100.00
51452;BME280;37521;52.020;-1.740;2023-06-22T04:20:11;100183.78;;;11.14;100.00
51452;BME280;37521;52.020;-1.740;2023-06-22T04:22:39;100176.81;;;11.13;100.00
51452;BME280;37521;52.020;-1.740;2023-06-22T04:25:08;100176.94;;;11.10;100.00
51452;BME280;37521;52.020;-1.740;2023-06-22T04:27:36;100172.72;;;11.06;100.00
51452;BME280;37521;52.020;-1.740;2023-06-22T04:30:09;100175.44;;;11.04;100.00
51452;BME280;37521;52.020;-1.740;2023-06-22T04:32:38;100166.72;;;11.02;100.00
51452;BME280;37521;52.020;-1.740;2023-06-22T04:35:07;100172.84;;;11.03;100.00
51452;BME280;37521;52.020;-1.740;2023-06-22T04:37:35;100167.56;;;11.03;100.00
51452;BME280;37521;52.020;-1.740;2023-06-22T04:40:05;100169.16;;;11.07;100.00
51452;BME280;37521;52.020;-1.740;2023-06-22T04:42:34;100165.56;;;11.08;100.00
51452;BME280;37521;52.020;-1.740;2023-06-22T04:45:04;100176.03;;;11.11;100.00
51452;BME280;37521;52.020;-1.740;2023-06-22T04:47:34;100169.00;;;11.10;100.00
51452;BME280;37521;52.020;-1.740;2023-06-22T04:50:07;100176.81;;;11.13;100.00
51452;BME280;37521;52.020;-1.740;2023-06-22T04:52:35;100176.53;;;11.19;100.00
51452;BME280;37521;52.020;-1.740;2023-06-22T04:55:04;100182.31;;;11.27;100.00
51452;BME280;37521;52.020;-1.740;2023-06-22T04:57:33;100184.75;;;11.32;100.00
51452;BME280;37521;52.020;-1.740;2023-06-22T05:00:02;100182.75;;;11.37;100.00
51452;BME280;37521;52.020;-1.740;2023-06-22T05:02:42;100180.72;;;11.42;100.00
51452;BME280;37521;52.020;-1.740;2023-06-22T05:05:11;100175.16;;;11.48;100.00
51452;BME280;37521;52.020;-1.740;2023-06-22T05:07:42;100175.72;;;11.55;100.00
51452;BME280;37521;52.020;-1.740;2023-06-22T05:10:11;100183.38;;;11.61;100.00
51452;BME280;37521;52.020;-1.740;2023-06-22T05:12:41;100180.25;;;11.70;100.00
51452;BME280;37521;52.020;-1.740;2023-06-22T05:15:09;100190.28;;;11.82;100.00
51452;BME280;37521;52.020;-1.740;2023-06-22T05:17:38;100192.44;;;11.93;100.00
51452;BME280;37521;52.020;-1.740;2023-06-22T05:20:12;100194.69;;;12.00;100.00
51452;BME280;37521;52.020;-1.740;2023-06-22T05:22:41;100186.25;;;12.11;100.00
51452;BME280;37521;52.020;-1.740;2023-06-22T05:25:11;100194.56;;;12.21;100.00
51452;BME280;37521;52.020;-1.740;2023-06-22T05:27:39;100202.19;;;12.27;100.00
51452;BME280;37521;52.020;-1.740;2023-06-22T05:30:09;100200.09;;;12.34;100.00
51452;BME280;37521;52.020;-1.740;2023-06-22T05:32:38;100196.97;;;12.43;100.00
51452;BME280;37521;52.020;-1.740;2023-06-22T05:35:07;100199.09;;;12.53;100.00
51452;BME280;37521;52.020;-1.740;2023-06-22T05:37:37;100204.06;;;12.60;100.00
51452;BME280;37521;52.020;-1.740;2023-06-22T05:40:07;100202.06;;;12.65;100.00
51452;BME280;37521;52.020;-1.740;2023-06-22T05:42:36;100203.59;;;12.69;100.00
51452;BME280;37521;52.020;-1.740;2023-06-22T05:45:06;100205.84;;;12.76;100.00
51452;BME280;37521;52.020;-1.740;2023-06-22T05:47:34;100202.81;;;12.84;100.00
51452;BME280;37521;52.020;-1.740;2023-06-22T05:50:04;100194.50;;;12.90;100.00
51452;BME280;37521;52.020;-1.740;2023-06-22T05:52:40;100203.88;;;12.97;100.00
51452;BME280;37521;52.020;-1.740;2023-06-22T05:55:09;100200.09;;;13.01;100.00
51452;BME280;37521;52.020;-1.740;2023-06-22T05:57:37;100204.41;;;13.04;100.00
51452;BME280;37521;52.020;-1.740;2023-06-22T06:00:07;100209.44;;;13.08;100.00
51452;BME280;37521;52.020;-1.740;2023-06-22T06:02:37;100209.19;;;13.13;100.00
51452;BME280;37521;52.020;-1.740;2023-06-22T06:05:11;100211.00;;;13.13;100.00
51452;BME280;37521;52.020;-1.740;2023-06-22T06:07:43;100209.59;;;13.23;100.00
51452;BME280;37521;52.020;-1.740;2023-06-22T06:10:12;100210.38;;;13.25;100.00
51452;BME280;37521;52.020;-1.740;2023-06-22T06:12:40;100214.75;;;13.26;100.00
51452;BME280;37521;52.020;-1.740;2023-06-22T06:15:09;100215.34;;;13.31;100.00
51452;BME280;37521;52.020;-1.740;2023-06-22T06:17:45;100212.34;;;13.37;100.00
51452;BME280;37521;52.020;-1.740;2023-06-22T06:20:15;100219.19;;;13.41;100.00
51452;BME280;37521;52.020;-1.740;2023-06-22T06:22:45;100219.06;;;13.44;100.00
51452;BME280;37521;52.020;-1.740;2023-06-22T06:25:14;100225.88;;;13.48;100.00
51452;BME280;37521;52.020;-1.740;2023-06-22T06:27:44;100218.00;;;13.62;100.00
51452;BME280;37521;52.020;-1.740;2023-06-22T06:30:13;100213.72;;;13.76;100.00
51452;BME280;37521;52.020;-1.740;2023-06-22T06:32:43;100218.44;;;13.86;100.00
51452;BME280;37521;52.020;-1.740;2023-06-22T06:35:14;100216.06;;;13.98;100.00
51452;BME280;37521;52.020;-1.740;2023-06-22T06:37:46;100212.66;;;14.10;100.00
51452;BME280;37521;52.020;-1.740;2023-06-22T06:40:15;100214.72;;;14.21;100.00
51452;BME280;37521;52.020;-1.740;2023-06-22T06:42:45;100211.06;;;14.37;100.00
51452;BME280;37521;52.020;-1.740;2023-06-22T06:45:18;100220.47;;;14.59;100.00
51452;BME280;37521;52.020;-1.740;2023-06-22T06:47:46;100224.59;;;14.79;100.00
51452;BME280;37521;52.020;-1.740;2023-06-22T06:50:16;100218.06;;;14.98;100.00
51452;BME280;37521;52.020;-1.740;2023-06-22T06:52:46;100221.59;;;15.13;100.00
51452;BME280;37521;52.020;-1.740;2023-06-22T06:55:14;100224.41;;;15.24;100.00
51452;BME280;37521;52.020;-1.740;2023-06-22T06:57:43;100222.34;;;15.30;100.00
51452;BME280;37521;52.020;-1.740;2023-06-22T07:00:16;100221.00;;;15.37;100.00
51452;BME280;37521;52.020;-1.740;2023-06-22T07:02:45;100223.38;;;15.41;100.00
51452;BME280;37521;52.020;-1.740;2023-06-22T07:05:15;100224.22;;;15.42;100.00
51452;BME280;37521;52.020;-1.740;2023-06-22T07:07:45;100227.75;;;15.42;100.00
51452;BME280;37521;52.020;-1.740;2023-06-22T07:10:19;100224.91;;;15.45;100.00
51452;BME280;37521;52.020;-1.740;2023-06-22T07:12:53;100223.09;;;15.46;100.00
51452;BME280;37521;52.020;-1.740;2023-06-22T07:15:21;100221.19;;;15.48;100.00
51452;BME280;37521;52.020;-1.740;2023-06-22T07:17:50;100215.66;;;15.51;100.00
51452;BME280;37521;52.020;-1.740;2023-06-22T07:20:18;100211.88;;;15.55;100.00
51452;BME280;37521;52.020;-1.740;2023-06-22T07:22:48;100203.13;;;15.53;100.00
51452;BME280;37521;52.020;-1.740;2023-06-22T07:25:16;100203.13;;;15.53;100.00
51452;BME280;37521;52.020;-1.740;2023-06-22T07:27:47;100202.34;;;15.51;100.00
51452;BME280;37521;52.020;-1.740;2023-06-22T07:30:25;100202.06;;;15.56;100.00
51452;BME280;37521;52.020;-1.740;2023-06-22T07:32:54;100204.84;;;15.54;100.00
51452;BME280;37521;52.020;-1.740;2023-06-22T07:35:23;100206.53;;;15.55;100.00
51452;BME280;37521;52.020;-1.740;2023-06-22T07:37:53;100204.25;;;15.63;100.00
51452;BME280;37521;52.020;-1.740;2023-06-22T07:40:22;100201.22;;;15.69;100.00
51452;BME280;37521;52.020;-1.740;2023-06-22T07:42:50;100201.88;;;15.73;100.00
51452;BME280;37521;52.020;-1.740;2023-06-22T07:45:20;100200.06;;;15.73;100.00
51452;BME280;37521;52.020;-1.740;2023-06-22T07:47:49;100206.03;;;15.77;100.00
51452;BME280;37521;52.020;-1.740;2023-06-22T07:50:18;100210.97;;;15.83;100.00
51452;BME280;37521;52.020;-1.740;2023-06-22T07:52:47;100207.44;;;15.83;100.00
51452;BME280;37521;52.020;-1.740;2023-06-22T07:55:17;100210.34;;;15.79;100.00
51452;BME280;37521;52.020;-1.740;2023-06-22T07:57:47;100217.16;;;15.84;100.00
51452;BME280;37521;52.020;-1.740;2023-06-22T08:00:16;100210.69;;;15.88;100.00
51452;BME280;37521;52.020;-1.740;2023-06-22T08:02:45;100204.41;;;15.89;100.00
51452;BME280;37521;52.020;-1.740;2023-06-22T08:05:15;100211.03;;;15.96;100.00
51452;BME280;37521;52.020;-1.740;2023-06-22T08:08:00;100207.78;;;16.05;100.00
51452;BME280;37521;52.020;-1.740;2023-06-22T08:10:30;100206.03;;;16.04;100.00
51452;BME280;37521;52.020;-1.740;2023-06-22T08:12:58;100210.91;;;16.12;100.00
51452;BME280;37521;52.020;-1.740;2023-06-22T08:15:27;100206.88;;;16.19;100.00
51452;BME280;37521;52.020;-1.740;2023-06-22T08:17:56;100209.44;;;16.20;100.00
51452;BME280;37521;52.020;-1.740;2023-06-22T08:20:25;100202.00;;;16.25;100.00
51452;BME280;37521;52.020;-1.740;2023-06-22T08:22:56;100204.03;;;16.34;100.00
51452;BME280;37521;52.020;-1.740;2023-06-22T08:25:27;100215.47;;;16.49;100.00
51452;BME280;37521;52.020;-1.740;2023-06-22T08:27:59;100215.28;;;16.52;100.00
51452;BME280;37521;52.020;-1.740;2023-06-22T08:30:28;100216.75;;;16.56;100.00
51452;BME280;37521;52.020;-1.740;2023-06-22T08:32:57;100223.38;;;16.63;100.00
51452;BME280;37521;52.020;-1.740;2023-06-22T08:35:25;100220.41;;;16.68;100.00
51452;BME280;37521;52.020;-1.740;2023-06-22T08:37:54;100219.16;;;16.74;100.00
51452;BME280;37521;52.020;-1.740;2023-06-22T08:40:25;100224.16;;;16.78;100.00
51452;BME280;37521;52.020;-1.740;2023-06-22T08:42:54;100213.84;;;16.86;100.00
51452;BME280;37521;52.020;-1.740;2023-06-22T08:45:23;100214.91;;;16.97;100.00
51452;BME280;37521;52.020;-1.740;2023-06-22T08:47:54;100213.31;;;17.07;100.00
51452;BME280;37521;52.020;-1.740;2023-06-22T08:50:23;100217.44;;;17.24;100.00
51452;BME280;37521;52.020;-1.740;2023-06-22T08:52:51;100214.47;;;17.28;100.00
51452;BME280;37521;52.020;-1.740;2023-06-22T08:55:21;100214.47;;;17.28;100.00
51452;BME280;37521;52.020;-1.740;2023-06-22T08:57:49;100203.34;;;17.34;100.00
51452;BME280;37521;52.020;-1.740;2023-06-22T09:00:19;100213.38;;;17.43;100.00
51452;BME280;37521;52.020;-1.740;2023-06-22T09:02:50;100211.09;;;17.50;100.00
51452;BME280;37521;52.020;-1.740;2023-06-22T09:05:19;100225.09;;;17.54;100.00
51452;BME280;37521;52.020;-1.740;2023-06-22T09:07:48;100222.97;;;17.59;100.00
51452;BME280;37521;52.020;-1.740;2023-06-22T09:10:17;100213.97;;;17.60;100.00
51452;BME280;37521;52.020;-1.740;2023-06-22T09:12:46;100225.06;;;17.66;100.00
51452;BME280;37521;52.020;-1.740;2023-06-22T09:15:14;100221.63;;;17.77;100.00
51452;BME280;37521;52.020;-1.740;2023-06-22T09:17:44;100223.22;;;17.92;100.00
51452;BME280;37521;52.020;-1.740;2023-06-22T09:20:16;100220.25;;;18.08;100.00
51452;BME280;37521;52.020;-1.740;2023-06-22T09:22:45;100220.88;;;18.12;100.00
51452;BME280;37521;52.020;-1.740;2023-06-22T09:25:13;100230.66;;;18.24;100.00
51452;BME280;37521;52.020;-1.740;2023-06-22T09:27:42;100233.13;;;18.38;100.00
51452;BME280;37521;52.020;-1.740;2023-06-22T09:30:11;100230.25;;;18.41;100.00
51452;BME280;37521;52.020;-1.740;2023-06-22T09:32:39;100231.41;;;18.26;100.00
51452;BME280;37521;52.020;-1.740;2023-06-22T09:35:09;100231.00;;;17.95;100.00
51452;BME280;37521;52.020;-1.740;2023-06-22T09:37:41;100235.97;;;17.76;100.00
51452;BME280;37521;52.020;-1.740;2023-06-22T09:40:10;100236.81;;;17.64;100.00
51452;BME280;37521;52.020;-1.740;2023-06-22T09:42:41;100247.50;;;17.64;100.00
51452;BME280;37521;52.020;-1.740;2023-06-22T09:45:10;100246.66;;;17.63;100.00
51452;BME280;37521;52.020;-1.740;2023-06-22T09:47:38;100241.31;;;17.76;100.00
51452;BME280;37521;52.020;-1.740;2023-06-22T09:50:07;100236.50;;;18.29;100.00
51452;BME280;37521;52.020;-1.740;2023-06-22T09:52:36;100247.59;;;18.60;100.00
51452;BME280;37521;52.020;-1.740;2023-06-22T09:55:09;100233.91;;;18.75;100.00
51452;BME280;37521;52.020;-1.740;2023-06-22T09:57:37;100241.25;;;18.96;100.00
51452;BME280;37521;52.020;-1.740;2023-06-22T10:00:07;100247.22;;;19.11;100.00
51452;BME280;37521;52.020;-1.740;2023-06-22T10:02:39;100233.88;;;19.44;100.00
51452;BME280;37521;52.020;-1.740;2023-06-22T10:05:08;100238.41;;;19.66;100.00
51452;BME280;37521;52.020;-1.740;2023-06-22T10:07:37;100232.69;;;19.59;100.00
51452;BME280;37521;52.020;-1.740;2023-06-22T10:10:11;100222.94;;;19.70;100.00
51452;BME280;37521;52.020;-1.740;2023-06-22T10:12:54;100236.53;;;20.00;100.00
51452;BME280;37521;52.020;-1.740;2023-06-22T10:15:22;100228.53;;;20.21;100.00
51452;BME280;37521;52.020;-1.740;2023-06-22T10:17:51;100238.69;;;20.50;100.00
51452;BME280;37521;52.020;-1.740;2023-06-22T10:20:19;100234.38;;;20.79;100.00
51452;BME280;37521;52.020;-1.740;2023-06-22T10:22:49;100235.69;;;20.85;100.00
51452;BME280;37521;52.020;-1.740;2023-06-22T10:25:19;100230.22;;;21.17;100.00
51452;BME280;37521;52.020;-1.740;2023-06-22T10:27:48;100228.28;;;21.49;100.00
51452;BME280;37521;52.020;-1.740;2023-06-22T10:30:16;100231.81;;;21.50;100.00
51452;BME280;37521;52.020;-1.740;2023-06-22T10:32:45;100220.22;;;21.49;100.00
51452;BME280;37521;52.020;-1.740;2023-06-22T10:35:13;100228.81;;;21.34;100.00
51452;BME280;37521;52.020;-1.740;2023-06-22T10:37:43;100237.56;;;21.36;100.00
51452;BME280;37521;52.020;-1.740;2023-06-22T10:40:15;100227.75;;;21.56;100.00
51452;BME280;37521;52.020;-1.740;2023-06-22T10:42:45;100235.38;;;21.51;100.00
51452;BME280;37521;52.020;-1.740;2023-06-22T10:45:13;100233.81;;;21.48;100.00
51452;BME280;37521;52.020;-1.740;2023-06-22T10:47:42;100218.94;;;21.44;100.00
51452;BME280;37521;52.020;-1.740;2023-06-22T10:50:11;100230.19;;;21.07;100.00
51452;BME280;37521;52.020;-1.740;2023-06-22T10:52:39;100219.59;;;20.64;100.00
51452;BME280;37521;52.020;-1.740;2023-06-22T10:55:09;100228.88;;;20.28;100.00
51452;BME280;37521;52.020;-1.740;2023-06-22T10:57:38;100233.94;;;20.42;100.00
51452;BME280;37521;52.020;-1.740;2023-06-22T11:00:13;100231.59;;;20.17;100.00
51452;BME280;37521;52.020;-1.740;2023-06-22T11:02:43;100222.84;;;20.03;100.00
51452;BME280;37521;52.020;-1.740;2023-06-22T11:05:12;100225.78;;;20.00;100.00
51452;BME280;37521;52.020;-1.740;2023-06-22T11:07:42;100231.16;;;20.32;100.00
51452;BME280;37521;52.020;-1.740;2023-06-22T11:10:15;100231.31;;;20.84;100.00
51452;BME280;37521;52.020;-1.740;2023-06-22T11:12:44;100230.50;;;20.93;100.00
51452;BME280;37521;52.020;-1.740;2023-06-22T11:15:14;100226.97;;;20.72;100.00
51452;BME280;37521;52.020;-1.740;2023-06-22T11:17:42;100237.69;;;20.39;100.00
51452;BME280;37521;52.020;-1.740;2023-06-22T11:20:11;100236.50;;;20.32;100.00
51452;BME280;37521;52.020;-1.740;2023-06-22T11:22:41;100239.53;;;20.50;100.00
51452;BME280;37521;52.020;-1.740;2023-06-22T11:25:09;100244.50;;;21.17;100.00
51452;BME280;37521;52.020;-1.740;2023-06-22T11:27:39;100235.13;;;21.63;100.00
51452;BME280;37521;52.020;-1.740;2023-06-22T11:30:09;100232.88;;;21.68;100.00
51452;BME280;37521;52.020;-1.740;2023-06-22T11:32:39;100233.75;;;21.69;100.00
51452;BME280;37521;52.020;-1.740;2023-06-22T11:35:08;100227.59;;;22.07;100.00
51452;BME280;37521;52.020;-1.740;2023-06-22T11:37:37;100225.38;;;22.51;97.08
51452;BME280;37521;52.020;-1.740;2023-06-22T11:40:06;100218.56;;;22.76;94.56
51452;BME280;37521;52.020;-1.740;2023-06-22T11:42:36;100225.03;;;21.96;94.50
51452;BME280;37521;52.020;-1.740;2023-06-22T11:45:06;100229.50;;;21.36;89.40
51452;BME280;37521;52.020;-1.740;2023-06-22T11:47:35;100233.00;;;21.06;93.97
51452;BME280;37521;52.020;-1.740;2023-06-22T11:50:06;100231.78;;;20.89;99.81
51452;BME280;37521;52.020;-1.740;2023-06-22T11:52:35;100226.06;;;21.03;100.00
51452;BME280;37521;52.020;-1.740;2023-06-22T11:55:05;100225.47;;;21.20;98.61
51452;BME280;37521;52.020;-1.740;2023-06-22T11:57:35;100224.84;;;20.86;98.63
51452;BME280;37521;52.020;-1.740;2023-06-22T12:00:04;100229.34;;;20.65;100.00
51452;BME280;37521;52.020;-1.740;2023-06-22T12:02:43;100220.28;;;21.29;100.00
51452;BME280;37521;52.020;-1.740;2023-06-22T12:05:13;100216.22;;;21.74;100.00
51452;BME280;37521;52.020;-1.740;2023-06-22T12:07:42;100216.22;;;21.84;95.91
51452;BME280;37521;52.020;-1.740;2023-06-22T12:10:10;100204.38;;;21.87;94.24
51452;BME280;37521;52.020;-1.740;2023-06-22T12:12:39;100205.81;;;22.20;90.46
51452;BME280;37521;52.020;-1.740;2023-06-22T12:15:09;100206.41;;;22.62;85.91
51452;BME280;37521;52.020;-1.740;2023-06-22T12:17:38;100202.94;;;23.08;81.29
51452;BME280;37521;52.020;-1.740;2023-06-22T12:20:08;100204.72;;;23.27;78.71
51452;BME280;37521;52.020;-1.740;2023-06-22T12:22:38;100191.13;;;23.19;77.32
51452;BME280;37521;52.020;-1.740;2023-06-22T12:25:08;100191.44;;;23.44;73.54
51452;BME280;37521;52.020;-1.740;2023-06-22T12:27:37;100186.84;;;23.54;75.11
51452;BME280;37521;52.020;-1.740;2023-06-22T12:30:08;100187.63;;;23.09;75.73
51452;BME280;37521;52.020;-1.740;2023-06-22T12:32:37;100193.91;;;22.90;78.49
51452;BME280;37521;52.020;-1.740;2023-06-22T12:35:06;100197.88;;;22.96;82.51
51452;BME280;37521;52.020;-1.740;2023-06-22T12:37:42;100189.56;;;23.17;80.09
51452;BME280;37521;52.020;-1.740;2023-06-22T12:40:13;100181.31;;;23.28;82.01
51452;BME280;37521;52.020;-1.740;2023-06-22T12:42:45;100180.91;;;23.50;76.07
51452;BME280;37521;52.020;-1.740;2023-06-22T12:45:13;100173.44;;;23.72;73.17